• Join FlightAware (Why Join?)
  • Login
  • US Flag 
05:00AM EDT


 

Airport Tracker/Info


-or-


 

Live Flight TrackerFlight Track Log ✈ N667CD ✈ 25-Apr-2013 ✈ KPBI - KCRG

Flight Track Log - Related Links

Times and Time Zones

All times are in EDT time to prevent confusion due to time zone crossing. See the N667CD flight status page for this flight to view local times or setup timezone preferences in your user account.

Time Position Orientation Groundspeed Altitude Reporting Facility
EDT Latitude Longitude Course Direction KTS MPH feet Rate Location/Type
06:00PM 26.8751 -80.2459 323° Northwest  Level FlightAware Approximate
06:01PM 26.9095 -80.2738 326° Northwest  Level FlightAware Approximate
06:02PM 26.9447 -80.3002 326° Northwest  Level FlightAware Approximate
06:02PM 26.9336 -80.2189 320° Northwest 143 165 5,200  Level Miami Center
06:03PM 26.9799 -80.3269 325° Northwest  Level FlightAware Approximate
06:03PM 26.9581 -80.2475 314° West 148 170 6,000  Level Miami Center
06:04PM 27.0148 -80.3540 325° Northwest  Level FlightAware Approximate
06:04PM 26.9864 -80.2786 316° Northwest 143 165 6,800  Level Miami Center
06:05PM 27.0497 -80.3812 325° Northwest  Level FlightAware Approximate
06:05PM 27.0150 -80.3097 316° Northwest 143 165 7,600  Level Miami Center
06:06PM 27.0846 -80.4083 325° Northwest  Level FlightAware Approximate
06:06PM 27.0372 -80.3383 311° West 143 165 7,900  Level Miami Center
06:07PM 27.0617 -80.3625 319° Northwest 143 165 9,000 540 Climbing Miami Center
06:08PM 27.0942 -80.4008 314° West 167 192 9,000  Level Miami Center
06:09PM 27.1247 -80.4344 316° Northwest 160 184 9,000  Level Miami Center
06:10PM 27.1592 -80.4728 315° West 155 178 9,000  Level Miami Center
06:11PM 27.2008 -80.4811 350° North 141 162 9,000  Level Miami Center
06:12PM 27.2422 -80.4894 350° North 146 168 9,000 -60 Level Miami Center
06:13PM 27.2797 -80.4953 352° North 146 168 8,900  Descending Miami Center
06:14PM 27.3233 -80.5036 350° North 146 168 9,000  Climbing Miami Center
06:15PM 27.3650 -80.5097 353° North 146 168 8,900  Descending Miami Center
06:16PM 27.4044 -80.5156 353° North 146 168 9,000  Climbing Miami Center
06:17PM 27.4439 -80.5239 349° North 146 168 8,900  Descending Miami Center
06:18PM 27.4836 -80.5297 353° North 146 168 9,000  Climbing Miami Center
06:19PM 27.5292 -80.5358 353° North 146 168 8,900  Descending Miami Center
06:20PM 27.5708 -80.5442 350° North 146 168 9,000  Climbing Miami Center
06:21PM 27.6125 -80.5503 353° North 146 168 9,000 -60 Level Miami Center
06:22PM 27.6497 -80.5586 349° North 146 168 8,900  Descending Miami Center
06:23PM 27.6914 -80.5669 350° North 146 168 9,000  Climbing Miami Center
06:24PM 27.7350 -80.5731 353° North 146 168 9,000  Level Miami Center
06:25PM 27.7744 -80.5789 353° North 146 168 9,000  Level Miami Center
06:26PM 27.8119 -80.5872 349° North 146 168 9,000  Level Miami Center
06:27PM 27.8514 -80.5933 352° North 146 168 9,000  Level Miami Center
06:28PM 27.8950 -80.6017 350° North 146 168 9,000 -60 Level Miami Center
06:29PM 27.9367 -80.6078 353° North 146 168 8,900  Descending Miami Center
06:30PM 28.0167 -80.6167 354° North 147 169 9,000  Climbing Orlando TRACON
06:32PM 28.0667 -80.6333 344° North 147 169 8,900  Descending Orlando TRACON
06:33PM 28.1000 -80.6333 360° North 146 168 9,000  Climbing Orlando TRACON
06:33PM 28.1333 -80.6500 336° Northwest 146 168 8,900  Descending Orlando TRACON
06:34PM 28.1667 -80.6667 336° Northwest 147 169 9,000  Climbing Orlando TRACON
06:35PM 28.2167 -80.6833 344° North 146 168 8,900  Descending Orlando TRACON
06:36PM 28.2500 -80.6833 360° North 147 169 9,000  Climbing Orlando TRACON
06:37PM 28.2833 -80.7000 336° Northwest 146 168 9,000  Level Orlando TRACON
06:39PM 28.3333 -80.7167 344° North 147 169 9,000  Level Orlando TRACON
06:41PM 28.4000 -80.7500 336° Northwest 149 171 9,000  Level Orlando TRACON
06:41PM 28.4500 -80.7667 344° North 151 174 9,000  Level Orlando TRACON
06:42PM 28.4833 -80.7833 336° Northwest 149 171 9,000  Level Orlando TRACON
06:44PM 28.5333 -80.8000 344° North 146 168 9,000  Level Orlando TRACON
06:44PM 28.5667 -80.8167 336° Northwest 145 167 9,000  Level Orlando TRACON
06:46PM 28.6000 -80.8333 336° Northwest 148 170 9,000  Level Orlando TRACON
06:46PM 28.6333 -80.8500 336° Northwest 148 170 9,000 -60 Level Orlando TRACON
06:47PM 28.6833 -80.8667 344° North 147 169 8,900  Descending Orlando TRACON
06:50PM 28.7583 -80.8961 341° North 147 169 9,000  Climbing Jacksonville Center
06:51PM 28.7961 -80.9144 337° Northwest 150 173 9,000  Level Jacksonville Center
06:52PM 28.8383 -80.9300 342° North 150 173 9,000  Level Jacksonville Center
06:53PM 28.8803 -80.9458 342° North 151 174 9,000  Level Jacksonville Center
06:54PM 28.9200 -80.9642 338° Northwest 150 173 9,000  Level Jacksonville Center
06:55PM 28.9600 -80.9775 344° North 150 173 9,000  Level Jacksonville Center
06:56PM 29.0000 -80.9933 341° North 153 176 9,000  Level Jacksonville Center
06:57PM 29.0419 -81.0117 339° North 154 177 9,000  Level Jacksonville Center
06:58PM 29.0839 -81.0275 342° North 156 180 9,000  Level Jacksonville Center
06:59PM 29.1236 -81.0433 341° North 154 177 9,000 -120 Level Jacksonville Center
07:00PM 29.1594 -81.0569 342° North 156 180 8,800 -240 Descending Jacksonville Center
07:01PM 29.2183 -81.0819 340° North 166 191 8,500 -300 Descending Jacksonville Center
07:02PM 29.2603 -81.0978 342° North 168 193 8,200 -300 Descending Jacksonville Center
07:03PM 29.3083 -81.1161 342° North 165 190 7,900 -300 Descending Jacksonville Center
07:04PM 29.3506 -81.1342 340° North 166 191 7,600 -300 Descending Jacksonville Center
07:05PM 29.3967 -81.1503 343° North 167 192 7,300 -360 Descending Jacksonville Center
07:06PM 29.4364 -81.1639 343° North 167 192 7,000 -360 Descending Jacksonville Center
07:07PM 29.4806 -81.1844 338° Northwest 168 193 6,700 -360 Descending Jacksonville Center
07:08PM 29.5225 -81.2006 342° North 167 192 6,400 -300 Descending Jacksonville Center
07:09PM 29.5708 -81.2186 342° North 168 193 6,100 -300 Descending Jacksonville Center
07:10PM 29.6169 -81.2369 341° North 168 193 5,800 -300 Descending Jacksonville Center
07:11PM 29.6589 -81.2531 342° North 168 193 5,500 -360 Descending Jacksonville Center
07:12PM 29.7050 -81.2689 343° North 167 192 5,100 -300 Descending Jacksonville Center
07:13PM 29.7428 -81.2875 337° Northwest 166 191 5,000 -60 Descending Jacksonville Center
07:14PM 29.7889 -81.3036 343° North 161 185 5,000  Level Jacksonville Center
07:15PM 29.8331 -81.3219 340° North 152 175 5,000  Level Jacksonville Center
07:16PM 29.8750 -81.3381 342° North 154 177 5,000  Level Jacksonville Center
07:17PM 29.9169 -81.3517 344° North 155 178 5,000 -240 Level Jacksonville Center
07:18PM 29.9589 -81.3703 339° North 165 190 4,600 -480 Descending Jacksonville Center
07:19PM 30.0028 -81.3864 342° North 176 203 4,100 -540 Descending Jacksonville Center
07:20PM 30.0469 -81.4047 340° North 176 203 3,600 -540 Descending Jacksonville Center
07:21PM 30.0972 -81.4208 345° North 178 205 3,100 -600 Descending Jacksonville Center
07:22PM 30.1456 -81.4394 342° North 174 200 2,500 -660 Descending Jacksonville Center
07:23PM 30.1917 -81.4556 343° North 179 206 1,800 -600 Descending Jacksonville Center
07:24PM 30.2417 -81.4619 354° North 182 209 1,300 -420 Descending Jacksonville Center
07:25PM 30.2942 -81.4708 352° North 179 206 1,000 -240 Descending Jacksonville Center
07:26PM 30.3256 -81.4800 346° North 105 121 900 -300 Descending Jacksonville Center
07:27PM 30.3444 -81.4964 323° Northwest 81 93 500 -300 Descending Jacksonville Center
07:28PM 30.3383 -81.5086 240° Southwest 90 104 300 -120 Descending Jacksonville Center
07:29PM 30.3383 -81.5086 344° North 90 104 300  Level Jacksonville Center